• Join FlightAware (Why Join?)
  • Login
  • US Flag 
09:35AM EDT


 

Airport Tracker/Info


-or-


 

Live Flight TrackerFlight Track Log ✈ N45NF ✈ 20-Sep-2013 ✈ KRDU - KLWB

Flight Track Log - Related Links

Times and Time Zones

All times are in EDT time to prevent confusion due to time zone crossing. See the N45NF flight status page for this flight to view local times or setup timezone preferences in your user account.

Time Position Orientation Groundspeed Altitude Reporting Facility
EDT Latitude Longitude Course Direction KTS MPH feet Rate Location/Type
04:04PM 35.9708 -78.7358 23° Northeast 273 314 5,700  Level Washington Center
04:05PM 36.0258 -78.7844 324° Northwest 271 312 9,400 3,120 Climbing Washington Center
04:06PM 36.0067 -78.8786 256° West 208 239 12,100 2,820 Climbing Washington Center
04:07PM 35.9808 -78.9803 253° West 248 285 15,000 1,860 Climbing Washington Center
04:08PM 36.0350 -79.0597 310° West 271 312 16,000 480 Climbing Washington Center
04:09PM 36.1189 -79.1147 332° Northwest 306 352 16,000  Level Washington Center
04:10PM 36.2167 -79.1886 329° Northwest 361 415 16,000  Level Washington Center
04:11PM 36.2964 -79.2489 329° Northwest 371 427 16,000  Level Washington Center
04:12PM 36.3758 -79.3119 327° Northwest 382 440 16,000  Level Washington Center
04:13PM 36.4736 -79.3864 329° Northwest 382 440 16,000  Level Washington Center
04:14PM 36.5592 -79.4528 328° Northwest 382 440 16,000  Level Washington Center
04:15PM 36.6567 -79.5300 328° Northwest 382 440 16,000  Level Washington Center
04:16PM 36.7419 -79.5992 327° Northwest 382 440 16,000  Level Washington Center
04:17PM 36.8294 -79.6686 328° Northwest 377 434 16,000  Level Washington Center
04:18PM 36.9169 -79.7356 329° Northwest 377 434 16,000  Level Washington Center
04:19PM 36.9939 -79.7994 326° Northwest 377 434 16,000  Level Washington Center
04:20PM 37.0811 -79.8667 328° Northwest 377 434 16,000  Level Washington Center
04:21PM 37.1683 -79.9367 327° Northwest 377 434 16,000  Level Washington Center
04:22PM 37.2469 -80.0142 322° Northwest 372 428 16,000  Level Washington Center
04:23PM 37.3308 -80.1106 318° Northwest 367 422 16,000 -120 Level Washington Center
04:24PM 37.4050 -80.1933 318° Northwest 367 422 15,800 -1,320 Descending Washington Center
04:25PM 37.4664 -80.2756 313° West 345 397 13,400 -2,460 Descending Washington Center
04:26PM 37.5153 -80.3572 307° West 314 361 10,900 -2,520 Descending Washington Center
04:27PM 37.5583 -80.4333 306° West 290 334 8,400 -2,100 Descending Washington Center
04:28PM 37.5953 -80.4958 307° West 270 311 6,700 -1,680 Descending Washington Center
04:29PM 37.6472 -80.5492 321° Northwest 243 280 5,100 -840 Descending Washington Center
04:30PM 37.7014 -80.5528 357° North 200 230 5,100 -240 Level Washington Center
04:31PM 37.7492 -80.5058 38° Northeast 167 192 4,700 -660 Descending Washington Center
04:32PM 37.7861 -80.4689 38° Northeast 173 199 3,800 -720 Descending Washington Center
04:33PM 37.8228 -80.4425 30° Northeast 173 199 3,300 -540 Descending Washington Center